Time;durP1;ratioP1;P1;durP2;ratioP2;P2;SDS_P1;SDS_P2;PMS_P1;PMS_P2;Temp;Humidity;BMP_temperature;BMP_pressure;BME280_temperature;BME280_humidity;BME280_pressure;Samples;Min_cycle;Max_cycle;Signal;HPM_P1;HPM_P2
2021/05/03 00:01:34;;;;;;;14.18;9.57;;;;;;;10.59;57.15;100917.97;4407741;32;20109;-71
2021/05/03 00:04:00;;;;;;;15.77;10.00;;;;;;;10.50;57.24;100912.13;4402872;32;20510;-75
2021/05/03 00:06:26;;;;;;;13.48;9.75;;;;;;;10.49;57.31;100902.88;4404512;32;20150;-71
2021/05/03 00:08:51;;;;;;;14.77;9.27;;;;;;;10.49;57.32;100904.94;4401372;32;20042;-74
2021/05/03 00:11:17;;;;;;;15.65;9.38;;;;;;;10.56;57.36;100907.59;4403812;32;20065;-74
2021/05/03 00:13:43;;;;;;;14.32;8.90;;;;;;;10.42;57.46;100896.62;4403888;32;20074;-73
2021/05/03 00:16:08;;;;;;;12.55;8.63;;;;;;;10.43;57.83;100903.84;4405317;32;20587;-73
2021/05/03 00:18:34;;;;;;;15.05;8.55;;;;;;;10.35;58.29;100906.00;4397943;32;20065;-73
2021/05/03 00:21:01;;;;;;;13.75;8.95;;;;;;;10.33;58.41;100910.47;4403831;32;20470;-75
2021/05/03 00:23:27;;;;;;;15.50;8.65;;;;;;;10.32;58.45;100901.25;4400175;32;20026;-71
2021/05/03 00:25:53;;;;;;;16.62;9.10;;;;;;;10.37;58.24;100888.69;4404767;32;20073;-72
2021/05/03 00:28:19;;;;;;;16.27;8.35;;;;;;;10.40;58.07;100887.84;4404507;32;20109;-73
2021/05/03 00:30:45;;;;;;;12.63;8.10;;;;;;;10.44;58.25;100888.53;4402889;32;20107;-73
2021/05/03 00:33:10;;;;;;;13.43;7.80;;;;;;;10.58;57.88;100891.06;4405053;32;20158;-74
2021/05/03 00:35:36;;;;;;;15.38;8.85;;;;;;;10.63;57.48;100876.47;4403639;32;20121;-74
2021/05/03 00:38:03;;;;;;;12.35;7.47;;;;;;;10.70;57.48;100882.75;4404691;32;20077;-71
2021/05/03 00:40:28;;;;;;;12.52;7.68;;;;;;;10.57;58.52;100872.59;4407514;32;20370;-72
2021/05/03 00:42:54;;;;;;;12.25;7.80;;;;;;;10.78;58.11;100880.56;4404187;32;20462;-71
2021/05/03 00:45:21;;;;;;;11.85;7.65;;;;;;;10.74;59.03;100875.00;4406007;32;20042;-73
2021/05/03 00:47:47;;;;;;;14.18;7.55;;;;;;;10.71;59.09;100880.72;4402394;32;20085;-74
2021/05/03 00:50:15;;;;;;;11.68;7.37;;;;;;;10.71;59.34;100875.88;4402904;32;20058;-72
2021/05/03 00:52:41;;;;;;;13.57;8.00;;;;;;;10.66;59.62;100876.41;4402716;32;20050;-74
2021/05/03 00:55:08;;;;;;;13.45;7.12;;;;;;;10.62;59.91;100875.69;4403869;32;20077;-74
2021/05/03 00:57:35;;;;;;;10.95;7.15;;;;;;;10.58;59.52;100868.56;4405813;32;20050;-74
2021/05/03 01:00:01;;;;;;;12.65;8.13;;;;;;;10.66;59.34;100873.59;4400658;32;20378;-73
2021/05/03 01:02:26;;;;;;;13.00;7.55;;;;;;;10.72;59.50;100871.03;4403648;32;20478;-72
2021/05/03 01:04:52;;;;;;;11.40;6.95;;;;;;;10.73;59.77;100869.81;4403868;32;20095;-74
2021/05/03 01:07:18;;;;;;;14.95;7.60;;;;;;;10.73;59.87;100858.53;4403635;32;20375;-72
2021/05/03 01:09:43;;;;;;;10.98;7.10;;;;;;;10.79;59.69;100857.59;4403219;32;20038;-76
2021/05/03 01:12:09;;;;;;;10.40;7.10;;;;;;;10.82;59.12;100858.75;4403122;32;20127;-74
2021/05/03 01:14:36;;;;;;;12.25;7.20;;;;;;;10.87;58.50;100850.59;4406584;32;20457;-73
2021/05/03 01:17:02;;;;;;;12.18;7.82;;;;;;;10.72;59.52;100856.97;4405345;32;20085;-75
2021/05/03 01:19:29;;;;;;;12.52;7.45;;;;;;;10.69;59.78;100850.19;4402339;32;20050;-74
2021/05/03 01:21:56;;;;;;;11.23;7.47;;;;;;;10.59;60.40;100847.63;4400549;32;20516;-72
2021/05/03 01:24:22;;;;;;;10.75;7.15;;;;;;;10.54;60.18;100848.94;4385995;32;20419;-73
2021/05/03 01:26:48;;;;;;;13.30;7.85;;;;;;;10.52;60.10;100845.75;4402536;32;20034;-75
2021/05/03 01:29:15;;;;;;;12.82;7.90;;;;;;;10.45;60.70;100834.66;4399405;32;20109;-75
2021/05/03 01:31:46;;;;;;;13.75;8.15;;;;;;;10.36;60.85;100842.88;4406577;32;20122;-71
2021/05/03 01:34:13;;;;;;;12.10;8.00;;;;;;;10.29;60.48;100831.81;4403241;32;20105;-74
2021/05/03 01:36:41;;;;;;;13.38;8.18;;;;;;;10.27;60.74;100839.09;4400554;32;20026;-74
2021/05/03 01:39:10;;;;;;;16.73;8.43;;;;;;;10.25;60.69;100838.72;4400370;32;20416;-72
2021/05/03 01:41:37;;;;;;;14.25;7.85;;;;;;;10.15;60.87;100829.28;4401389;32;20081;-72
2021/05/03 01:44:08;;;;;;;9.88;7.47;;;;;;;10.15;60.95;100829.28;4402440;32;20082;-75
2021/05/03 01:46:37;;;;;;;12.88;7.82;;;;;;;10.14;60.91;100827.69;4403245;32;20031;-71
2021/05/03 01:49:05;;;;;;;12.02;7.47;;;;;;;10.17;60.59;100823.22;4400263;32;20105;-74
2021/05/03 01:51:31;;;;;;;13.18;7.40;;;;;;;10.04;60.77;100823.84;4399938;32;20074;-73
2021/05/03 01:53:58;;;;;;;15.27;8.75;;;;;;;9.92;61.37;100824.47;4403838;32;20488;-74
2021/05/03 01:56:25;;;;;;;14.05;8.32;;;;;;;10.04;60.92;100826.66;4403250;32;20063;-74
2021/05/03 01:58:53;;;;;;;14.65;8.18;;;;;;;9.91;61.23;100824.91;4404043;32;20113;-71
2021/05/03 02:01:19;;;;;;;14.43;7.78;;;;;;;9.95;61.39;100818.00;4398482;32;20114;-75
2021/05/03 02:03:45;;;;;;;13.07;7.80;;;;;;;9.83;61.38;100813.03;4398111;32;20171;-72
2021/05/03 02:06:13;;;;;;;11.77;8.15;;;;;;;9.79;61.62;100811.53;4389013;32;20112;-73
2021/05/03 02:08:39;;;;;;;16.23;8.63;;;;;;;9.80;61.50;100810.28;4401034;32;20725;-75
2021/05/03 02:11:05;;;;;;;17.12;8.68;;;;;;;9.70;62.10;100798.03;4398408;32;20093;-75
2021/05/03 02:13:32;;;;;;;13.05;7.97;;;;;;;9.67;62.14;100798.12;4403552;32;20109;-73
2021/05/03 02:15:59;;;;;;;13.75;8.50;;;;;;;9.55;62.45;100802.34;4400521;32;20445;-75
2021/05/03 02:18:25;;;;;;;14.75;8.32;;;;;;;9.62;62.42;100796.59;4402890;32;20046;-74
2021/05/03 02:20:51;;;;;;;16.00;8.77;;;;;;;9.57;62.52;100799.87;4402840;32;20077;-74
2021/05/03 02:23:16;;;;;;;13.15;8.93;;;;;;;9.80;61.82;100797.03;4402248;32;20575;-74
2021/05/03 02:25:42;;;;;;;15.95;8.70;;;;;;;9.81;62.08;100800.63;4403221;32;20042;-73
2021/05/03 02:28:08;;;;;;;12.73;8.20;;;;;;;9.69;62.13;100802.06;4403633;32;20140;-73
2021/05/03 02:30:35;;;;;;;14.32;8.60;;;;;;;9.71;62.04;100808.06;4401547;32;20327;-72
2021/05/03 02:33:00;;;;;;;14.73;8.65;;;;;;;9.60;62.58;100795.41;4399985;32;20076;-72
2021/05/03 02:35:29;;;;;;;16.23;8.27;;;;;;;9.59;62.61;100791.84;4404891;32;20710;-74
2021/05/03 02:37:58;;;;;;;12.57;8.02;;;;;;;9.61;62.67;100795.00;4404126;32;20098;-73
2021/05/03 02:40:24;;;;;;;19.58;8.30;;;;;;;9.55;62.77;100787.50;4405110;32;20030;-76
2021/05/03 02:42:52;;;;;;;12.10;7.85;;;;;;;9.48;63.03;100791.22;4402212;32;20116;-74
2021/05/03 02:45:18;;;;;;;14.80;8.00;;;;;;;9.66;62.63;100788.88;4404059;32;20101;-73
2021/05/03 02:47:44;;;;;;;11.30;7.37;;;;;;;9.80;61.82;100777.38;4401428;32;20042;-72
2021/05/03 02:50:13;;;;;;;12.88;8.15;;;;;;;9.86;61.60;100786.88;4403330;32;20041;-75
2021/05/03 02:52:39;;;;;;;18.90;8.60;;;;;;;9.55;62.80;100784.69;4405534;32;20153;-72
2021/05/03 02:55:08;;;;;;;12.80;8.45;;;;;;;9.51;62.91;100779.13;4401827;32;20451;-72
2021/05/03 02:57:34;;;;;;;16.30;8.38;;;;;;;9.53;62.71;100782.31;4391336;32;20389;-75
2021/05/03 02:59:59;;;;;;;12.55;8.00;;;;;;;9.48;62.96;100780.00;4406388;32;20061;-72
2021/05/03 03:02:25;;;;;;;20.95;8.45;;;;;;;9.52;62.71;100788.38;4403007;32;20681;-74
2021/05/03 03:04:51;;;;;;;14.57;7.70;;;;;;;9.52;62.70;100782.75;4407542;32;20046;-75
2021/05/03 03:07:17;;;;;;;15.43;8.57;;;;;;;9.50;62.84;100771.94;4407576;32;20090;-74
2021/05/03 03:09:42;;;;;;;17.42;8.82;;;;;;;9.45;63.21;100763.22;4405204;32;20069;-73
2021/05/03 03:12:10;;;;;;;13.77;8.52;;;;;;;9.69;62.49;100767.53;4407270;32;20030;-72
2021/05/03 03:14:36;;;;;;;18.00;8.25;;;;;;;9.78;62.20;100767.78;4389705;32;20365;-74
2021/05/03 03:17:03;;;;;;;13.88;8.25;;;;;;;9.83;62.04;100762.47;4407496;32;20073;-71
2021/05/03 03:19:29;;;;;;;13.57;7.90;;;;;;;9.80;62.14;100756.91;4401668;32;20443;-72
2021/05/03 03:21:55;;;;;;;11.70;7.78;;;;;;;9.76;62.10;100745.72;4403763;32;20198;-73
2021/05/03 03:24:20;;;;;;;17.45;9.30;;;;;;;9.83;61.92;100747.59;4404138;32;20469;-73
2021/05/03 03:26:46;;;;;;;14.20;8.18;;;;;;;9.70;62.28;100746.66;4406344;32;20415;-72
2021/05/03 03:29:11;;;;;;;13.10;7.82;;;;;;;9.82;62.11;100752.41;4404555;32;20430;-73
2021/05/03 03:31:37;;;;;;;14.73;8.23;;;;;;;9.51;62.91;100736.22;4403444;32;20034;-71
2021/05/03 03:34:03;;;;;;;15.23;8.60;;;;;;;9.38;63.50;100736.06;4403948;32;20104;-73
2021/05/03 03:36:29;;;;;;;12.23;7.78;;;;;;;9.60;63.03;100742.03;4405766;32;20073;-72
2021/05/03 03:38:55;;;;;;;14.10;7.80;;;;;;;9.67;62.66;100739.88;4403576;32;20465;-76
2021/05/03 03:41:21;;;;;;;14.48;8.20;;;;;;;9.71;62.75;100740.62;4401555;32;20108;-72
2021/05/03 03:43:47;;;;;;;15.32;8.07;;;;;;;9.69;62.70;100740.25;4402179;32;20173;-74
2021/05/03 03:46:13;;;;;;;13.48;8.57;;;;;;;9.42;63.47;100731.16;4402586;32;20135;-72
2021/05/03 03:48:38;;;;;;;13.65;8.15;;;;;;;9.32;64.08;100728.56;4404916;32;20097;-74
2021/05/03 03:51:05;;;;;;;14.27;7.80;;;;;;;9.30;64.20;100725.41;4403513;32;20069;-73
2021/05/03 03:53:31;;;;;;;11.52;7.60;;;;;;;9.35;64.26;100728.50;4402349;32;20109;-73
2021/05/03 03:55:57;;;;;;;15.75;7.68;;;;;;;9.32;64.19;100726.53;4404059;32;20165;-73
2021/05/03 03:58:23;;;;;;;12.85;7.87;;;;;;;9.31;64.27;100718.56;4404605;32;20053;-72
2021/05/03 04:00:48;;;;;;;13.23;7.47;;;;;;;9.32;64.59;100720.94;4405428;32;20423;-73
2021/05/03 04:03:14;;;;;;;15.18;8.43;;;;;;;9.33;64.81;100716.13;4406361;32;20060;-72
2021/05/03 04:08:25;;;;;;;15.00;7.47;;;;;;;10.10;62.93;100711.69;3985063;32;15075595;-71
2021/05/03 04:11:05;;;;;;;11.95;7.55;;;;;;;10.10;62.93;100711.69;4439030;32;20072;-73
2021/05/03 04:24:49;;;;;;;12.60;7.03;;;;;;;9.17;66.17;100693.53;4436380;32;19984;-72
2021/05/03 04:27:15;;;;;;;14.23;7.10;;;;;;;9.05;66.83;100692.16;4436787;32;20068;-70
2021/05/03 04:29:41;;;;;;;12.18;7.10;;;;;;;8.95;67.39;100689.53;4436378;32;20575;-71
2021/05/03 04:32:07;;;;;;;12.10;6.70;;;;;;;8.90;67.49;100682.41;4437978;32;20049;-74
2021/05/03 04:34:32;;;;;;;14.13;7.18;;;;;;;8.72;68.37;100684.75;4436656;32;20425;-73
2021/05/03 04:36:58;;;;;;;10.82;7.25;;;;;;;8.71;68.64;100690.81;4439040;32;20420;-74
2021/05/03 04:39:24;;;;;;;12.27;6.70;;;;;;;8.62;69.08;100693.34;4435900;32;20063;-71
2021/05/03 04:41:49;;;;;;;13.90;6.57;;;;;;;8.62;69.13;100687.75;4436047;32;20827;-75
2021/05/03 04:44:15;;;;;;;13.20;6.57;;;;;;;8.83;68.61;100681.75;4434666;32;20134;-73
2021/05/03 04:46:40;;;;;;;13.18;6.45;;;;;;;8.60;69.33;100679.75;4435757;32;20400;-72
2021/05/03 04:49:06;;;;;;;11.45;6.87;;;;;;;8.61;69.29;100681.34;4434108;32;20402;-74
2021/05/03 04:51:31;;;;;;;12.85;6.80;;;;;;;8.56;69.57;100679.00;4437849;32;20216;-74
2021/05/03 04:53:57;;;;;;;12.63;7.35;;;;;;;8.59;69.72;100674.56;4435948;32;20517;-74
2021/05/03 04:56:23;;;;;;;10.43;6.43;;;;;;;8.67;69.46;100667.59;4433528;32;20124;-71
2021/05/03 04:58:48;;;;;;;11.12;6.57;;;;;;;8.72;69.32;100679.16;4437593;32;20446;-73
2021/05/03 05:01:14;;;;;;;11.75;6.60;;;;;;;8.75;69.05;100669.88;4430916;32;20065;-72
2021/05/03 05:03:39;;;;;;;11.90;6.70;;;;;;;8.88;68.64;100675.66;4424871;32;20128;-72
2021/05/03 05:06:05;;;;;;;12.00;5.70;;;;;;;9.20;67.77;100668.22;4423703;32;20089;-74
2021/05/03 05:08:31;;;;;;;8.48;5.80;;;;;;;9.54;66.04;100677.13;4419815;32;20104;-75
2021/05/03 05:10:57;;;;;;;9.45;6.32;;;;;;;9.64;65.57;100673.31;4422133;32;20078;-71
2021/05/03 05:13:23;;;;;;;15.82;6.05;;;;;;;9.71;65.37;100683.63;4421492;32;20374;-71
2021/05/03 05:15:48;;;;;;;10.88;5.70;;;;;;;9.84;64.99;100671.28;4423272;32;20069;-70
2021/05/03 05:18:15;;;;;;;8.73;5.78;;;;;;;10.01;64.45;100666.50;4416236;32;20036;-72
2021/05/03 05:20:41;;;;;;;11.20;5.57;;;;;;;10.15;63.73;100665.41;4407716;32;21510;-72
2021/05/03 05:23:07;;;;;;;9.35;6.03;;;;;;;10.17;63.17;100666.53;4409030;32;20143;-71
2021/05/03 05:25:35;;;;;;;11.10;5.35;;;;;;;10.07;63.59;100664.78;4412050;32;20378;-75
2021/05/03 05:28:01;;;;;;;11.52;5.80;;;;;;;9.93;64.21;100668.66;4411100;32;20417;-71
2021/05/03 05:30:28;;;;;;;9.90;5.40;;;;;;;10.11;64.04;100665.47;4409213;32;20022;-75
2021/05/03 05:32:53;;;;;;;7.90;4.90;;;;;;;10.13;64.09;100665.84;4412340;32;20517;-74
2021/05/03 05:35:19;;;;;;;11.57;6.15;;;;;;;10.08;64.14;100655.09;4405770;32;20035;-71
2021/05/03 05:37:45;;;;;;;9.45;5.57;;;;;;;10.04;63.93;100649.53;4412259;32;20117;-72
2021/05/03 05:40:11;;;;;;;11.60;5.55;;;;;;;9.97;64.45;100648.88;4408975;32;20085;-74
2021/05/03 05:42:37;;;;;;;9.57;5.50;;;;;;;10.06;64.11;100654.72;4413352;32;20466;-73
2021/05/03 05:45:04;;;;;;;9.35;5.40;;;;;;;10.15;63.55;100659.78;4407615;32;20070;-75
2021/05/03 05:47:30;;;;;;;12.20;5.95;;;;;;;10.26;63.62;100655.47;4411179;32;20033;-72
2021/05/03 05:49:55;;;;;;;10.18;5.22;;;;;;;10.26;63.37;100663.13;4409683;32;20015;-73
2021/05/03 05:52:21;;;;;;;7.35;4.82;;;;;;;10.40;62.95;100651.53;4409162;32;20146;-72
2021/05/03 05:54:47;;;;;;;9.40;5.00;;;;;;;10.54;62.43;100648.34;4410856;32;20030;-73
2021/05/03 05:57:12;;;;;;;10.70;4.85;;;;;;;10.60;62.04;100644.56;4409947;32;20468;-74
2021/05/03 05:59:38;;;;;;;13.40;5.53;;;;;;;10.89;61.56;100653.06;4409538;32;20061;-72
2021/05/03 06:02:04;;;;;;;8.07;5.18;;;;;;;11.09;60.64;100646.06;4410063;32;20113;-72
2021/05/03 06:04:32;;;;;;;13.38;5.05;;;;;;;11.14;60.20;100645.50;4409760;32;20561;-74
2021/05/03 06:06:58;;;;;;;10.35;5.15;;;;;;;10.98;61.06;100634.28;4410853;32;20060;-70
2021/05/03 06:09:24;;;;;;;11.23;5.53;;;;;;;10.84;61.62;100642.34;4413497;32;20177;-75
2021/05/03 06:11:50;;;;;;;9.85;5.50;;;;;;;10.76;62.10;100640.94;4412863;32;20022;-73
2021/05/03 06:14:15;;;;;;;10.50;4.87;;;;;;;10.86;61.84;100632.22;4408832;32;20509;-76
2021/05/03 06:16:41;;;;;;;8.55;4.97;;;;;;;10.89;61.25;100625.69;4407000;32;20492;-73
2021/05/03 06:19:07;;;;;;;9.68;4.35;;;;;;;10.95;61.55;100623.16;4410739;32;20066;-72
2021/05/03 06:21:33;;;;;;;9.15;5.00;;;;;;;10.96;61.68;100619.09;4411668;32;20092;-73
2021/05/03 06:24:00;;;;;;;10.15;4.95;;;;;;;10.94;61.78;100621.53;4406045;32;20034;-76
2021/05/03 06:26:25;;;;;;;8.52;4.75;;;;;;;10.97;61.42;100624.28;4409899;32;20505;-75
2021/05/03 06:28:51;;;;;;;11.95;5.15;;;;;;;10.95;61.37;100620.34;4412316;32;20061;-72
2021/05/03 06:31:19;;;;;;;11.23;4.30;;;;;;;10.95;61.81;100612.66;4404094;32;20120;-73
2021/05/03 06:33:46;;;;;;;10.18;4.70;;;;;;;11.02;61.50;100611.69;4412372;32;20086;-72
2021/05/03 06:36:11;;;;;;;7.22;4.37;;;;;;;11.03;61.80;100604.81;4408837;32;20122;-76
2021/05/03 06:38:37;;;;;;;12.30;4.68;;;;;;;11.21;61.43;100613.53;4406835;32;20060;-72
2021/05/03 06:41:02;;;;;;;10.20;4.30;;;;;;;11.60;59.93;100604.75;4405325;32;20065;-73
2021/05/03 06:43:28;;;;;;;7.32;4.37;;;;;;;11.79;58.61;100598.12;4411900;32;20103;-74
2021/05/03 06:45:56;;;;;;;8.95;4.60;;;;;;;11.91;59.04;100603.75;4407875;32;20060;-74
2021/05/03 06:48:22;;;;;;;7.10;4.25;;;;;;;11.95;58.99;100592.38;4412668;32;20435;-74
2021/05/03 06:50:47;;;;;;;15.15;4.87;;;;;;;12.05;58.26;100580.75;4410498;32;20030;-74
2021/05/03 06:53:13;;;;;;;13.52;4.53;;;;;;;12.17;58.31;100578.38;4409263;32;20038;-72
2021/05/03 06:55:40;;;;;;;12.25;4.15;;;;;;;12.30;58.07;100576.34;4407843;32;20122;-73
2021/05/03 06:58:05;;;;;;;7.57;4.00;;;;;;;12.44;57.38;100565.34;4411910;32;20445;-73
2021/05/03 07:00:33;;;;;;;9.15;4.93;;;;;;;12.48;56.78;100549.06;4409916;32;20081;-73
2021/05/03 07:02:59;;;;;;;8.07;3.72;;;;;;;12.74;56.04;100552.59;4403517;32;20101;-70
2021/05/03 07:05:27;;;;;;;7.93;3.83;;;;;;;12.92;55.18;100550.69;4408112;32;20439;-74
2021/05/03 07:07:53;;;;;;;11.88;3.47;;;;;;;13.15;54.35;100555.13;4405010;32;20058;-71
2021/05/03 07:10:18;;;;;;;5.70;3.30;;;;;;;13.41;53.62;100543.22;4409946;32;20096;-74
2021/05/03 07:12:47;;;;;;;6.43;3.50;;;;;;;13.66;52.73;100543.03;4410578;32;20077;-71
2021/05/03 07:15:13;;;;;;;5.47;3.25;;;;;;;13.76;52.71;100536.19;4409676;32;20084;-73
2021/05/03 07:17:40;;;;;;;13.10;3.72;;;;;;;13.89;52.30;100531.19;4411335;32;20363;-73
2021/05/03 07:20:08;;;;;;;7.00;3.95;;;;;;;13.76;52.68;100536.19;4406686;32;20066;-72
2021/05/03 07:22:35;;;;;;;14.18;4.07;;;;;;;13.90;52.25;100529.94;4408132;32;20066;-71
2021/05/03 07:25:04;;;;;;;7.07;3.05;;;;;;;14.14;51.67;100523.72;4408309;32;20034;-72
2021/05/03 07:27:30;;;;;;;9.25;3.58;;;;;;;14.26;50.89;100517.94;4410368;32;20042;-71
2021/05/03 07:29:56;;;;;;;6.87;3.08;;;;;;;14.47;50.60;100534.03;4411352;32;20096;-74
2021/05/03 07:32:23;;;;;;;9.25;3.25;;;;;;;14.21;51.50;100520.59;4409594;32;20041;-72
2021/05/03 07:34:48;;;;;;;4.80;3.05;;;;;;;14.14;51.82;100520.88;4409097;32;20041;-74
2021/05/03 07:37:14;;;;;;;6.75;3.03;;;;;;;14.13;51.65;100516.47;4409971;32;20065;-72
2021/05/03 07:39:43;;;;;;;4.15;3.10;;;;;;;14.01;51.15;100518.19;4405552;32;20066;-73
2021/05/03 07:42:09;;;;;;;5.18;2.72;;;;;;;13.75;51.95;100522.50;4410782;32;20112;-72
2021/05/03 07:44:35;;;;;;;12.93;3.60;;;;;;;13.72;51.90;100517.78;4405333;32;20508;-74
2021/05/03 07:47:01;;;;;;;12.45;2.90;;;;;;;13.56;52.75;100515.97;4412965;32;20112;-74
2021/05/03 07:49:27;;;;;;;7.10;3.50;;;;;;;13.43;53.05;100514.47;4408839;32;20370;-72
2021/05/03 07:51:53;;;;;;;7.00;3.25;;;;;;;13.08;53.92;100508.19;4407997;32;20053;-73
2021/05/03 07:54:19;;;;;;;7.05;3.40;;;;;;;13.29;53.48;100498.09;4407503;32;20454;-73
2021/05/03 07:56:45;;;;;;;5.22;2.95;;;;;;;13.52;52.61;100508.88;4411366;32;20461;-75
2021/05/03 07:59:12;;;;;;;6.85;2.80;;;;;;;13.64;52.59;100489.00;4409543;32;21008;-75
2021/05/03 08:01:38;;;;;;;7.12;2.87;;;;;;;13.82;51.57;100489.06;4410346;32;20072;-74
2021/05/03 08:04:05;;;;;;;4.93;2.50;;;;;;;13.75;52.07;100494.22;4408380;32;20158;-73
2021/05/03 08:06:30;;;;;;;6.05;2.97;;;;;;;13.63;52.15;100478.16;4409473;32;20555;-76
2021/05/03 08:08:59;;;;;;;8.10;2.60;;;;;;;13.93;51.63;100478.06;4411683;32;20090;-71
2021/05/03 08:11:25;;;;;;;5.45;2.67;;;;;;;14.13;50.86;100468.34;4408514;32;20073;-72
2021/05/03 08:13:51;;;;;;;6.72;2.40;;;;;;;14.25;50.43;100470.28;4406920;32;20073;-72
2021/05/03 08:16:19;;;;;;;8.57;2.80;;;;;;;14.42;49.97;100471.56;4409536;32;20086;-73
2021/05/03 08:18:45;;;;;;;6.07;2.35;;;;;;;14.46;50.07;100460.87;4408769;32;20054;-72
2021/05/03 08:21:10;;;;;;;8.50;2.67;;;;;;;14.15;50.16;100469.47;4405801;32;21170;-72
2021/05/03 08:23:36;;;;;;;6.87;2.50;;;;;;;14.20;50.29;100451.09;4407827;32;20049;-73
2021/05/03 08:26:03;;;;;;;6.28;2.70;;;;;;;14.23;50.65;100461.47;4410566;32;20089;-73
2021/05/03 08:28:28;;;;;;;7.28;2.30;;;;;;;14.22;50.55;100448.56;4407850;32;20072;-73
2021/05/03 08:30:55;;;;;;;4.10;2.30;;;;;;;14.09;51.15;100448.72;4406174;32;20038;-75
2021/05/03 08:33:21;;;;;;;3.50;2.22;;;;;;;13.74;51.96;100436.06;4406622;32;20038;-71
2021/05/03 08:35:48;;;;;;;6.70;2.60;;;;;;;13.75;51.92;100432.75;4406961;32;20160;-71
2021/05/03 08:38:17;;;;;;;6.00;2.70;;;;;;;13.77;51.92;100427.44;4407627;32;20472;-71
2021/05/03 08:40:42;;;;;;;4.55;2.08;;;;;;;14.01;51.36;100425.59;4407806;32;20042;-73
2021/05/03 08:43:08;;;;;;;9.63;2.45;;;;;;;13.91;50.92;100417.56;4406854;32;20097;-74
2021/05/03 08:45:36;;;;;;;5.43;2.10;;;;;;;13.92;50.52;100421.97;4406888;32;20191;-72
2021/05/03 08:53:32;;;;;;;3.45;1.60;;;;;;;13.77;53.54;100406.84;3984660;32;15022343;-74
2021/05/03 08:55:58;;;;;;;7.03;1.95;;;;;;;13.77;53.54;100406.84;4438667;32;20084;-74
2021/05/03 08:58:24;;;;;;;5.45;2.20;;;;;;;13.04;55.21;100400.16;4439597;32;20077;-74
2021/05/03 09:00:51;;;;;;;3.72;2.00;;;;;;;13.10;55.45;100391.88;4437766;32;20406;-74
2021/05/03 09:03:18;;;;;;;7.25;2.35;;;;;;;13.22;55.62;100394.59;4421550;32;20078;-72
2021/05/03 09:05:44;;;;;;;3.62;2.05;;;;;;;13.32;55.49;100381.31;4422514;32;20073;-72
2021/05/03 09:08:27;;;;;;;6.15;2.25;;;;;;;13.28;54.23;100377.81;4423916;32;20065;-72
2021/05/03 09:10:55;;;;;;;7.47;2.08;;;;;;;13.37;53.72;100378.63;4422437;32;20033;-73
2021/05/03 09:13:37;;;;;;;6.75;1.87;;;;;;;13.57;53.31;100383.88;4421988;32;20074;-75
2021/05/03 09:18:53;;;;;;;5.97;1.70;;;;;;;14.04;50.38;100361.63;3974414;32;15027537;-73
2021/05/03 09:21:21;;;;;;;4.95;1.60;;;;;;;14.04;50.38;100361.63;4423387;32;20471;-72
2021/05/03 09:26:46;;;;;;;4.32;1.80;;;;;;;13.89;51.22;100340.88;3985126;32;15022392;-75
2021/05/03 09:34:52;;;;;;;4.57;2.15;;;;;;;13.31;52.20;100338.09;3964151;32;15027314;-73
2021/05/03 09:37:38;;;;;;;5.65;2.10;;;;;;;13.11;53.24;100329.28;4420244;32;20363;-73
2021/05/03 09:47:54;;;;;;;2.55;1.67;;;;;;;12.23;59.62;100306.50;3979814;32;15026231;-76
2021/05/03 09:50:23;;;;;;;3.60;1.85;;;;;;;12.23;59.62;100306.50;4432767;32;20082;-76
2021/05/03 09:53:11;;;;;;;3.72;2.17;;;;;;;11.75;62.07;100290.97;4434072;32;20077;-76
2021/05/03 09:58:23;;;;;;;6.47;2.35;;;;;;;11.39;63.13;100299.03;4004138;31;15017802;-76
2021/05/03 10:00:52;;;;;;;4.97;2.50;;;;;;;11.11;64.86;100271.09;4458604;32;20486;-74
2021/05/03 10:06:21;;;;;;;3.40;2.70;;;;;;;11.73;65.25;100258.84;3999216;31;15014486;-76
2021/05/03 10:08:50;;;;;;;3.55;2.45;;;;;;;11.73;65.25;100258.84;4460888;32;20437;-75
2021/05/03 10:11:17;;;;;;;5.37;2.55;;;;;;;11.39;65.02;100247.56;4459894;32;21192;-72
2021/05/03 10:13:45;;;;;;;3.47;2.42;;;;;;;11.54;64.02;100232.50;4453979;32;20496;-75
2021/05/03 10:16:11;;;;;;;5.05;2.60;;;;;;;11.62;64.21;100233.06;4459531;32;20029;-71
2021/05/03 10:18:40;;;;;;;6.35;2.55;;;;;;;11.45;64.21;100226.78;4454920;32;20092;-77
2021/05/03 10:21:08;;;;;;;5.70;2.83;;;;;;;11.57;63.39;100222.38;4459793;32;20133;-75
2021/05/03 10:23:34;;;;;;;5.37;2.53;;;;;;;11.80;63.25;100211.44;4460736;32;20174;-75
2021/05/03 10:26:00;;;;;;;3.87;3.03;;;;;;;11.83;63.01;100204.09;4459549;32;20100;-73
2021/05/03 10:28:27;;;;;;;4.10;2.78;;;;;;;11.91;64.10;100194.13;4459669;32;20080;-71
2021/05/03 10:30:57;;;;;;;6.10;3.30;;;;;;;11.87;63.51;100187.81;4463417;32;20037;-73
2021/05/03 10:33:34;;;;;;;5.93;3.45;;;;;;;12.00;63.67;100180.09;4462378;32;20506;-72
2021/05/03 10:36:04;;;;;;;4.60;3.37;;;;;;;12.13;64.20;100169.50;4456046;32;20410;-70
2021/05/03 10:44:21;;;;;;;9.02;4.97;;;;;;;11.79;68.57;100145.03;3984028;32;15024450;-72
2021/05/03 10:46:51;;;;;;;8.45;4.50;;;;;;;11.79;68.57;100145.03;4434206;32;20025;-72
2021/05/03 10:49:30;;;;;;;7.03;5.18;;;;;;;11.14;69.70;100132.19;4436094;32;20072;-75
2021/05/03 10:52:00;;;;;;;7.75;5.00;;;;;;;11.11;71.68;100124.66;4433527;32;20088;-72
2021/05/03 10:54:33;;;;;;;5.03;4.07;;;;;;;10.96;70.63;100117.94;4432861;32;20131;-72
2021/05/03 10:57:03;;;;;;;5.55;4.28;;;;;;;10.61;71.77;100119.97;4435051;32;20061;-74
2021/05/03 10:59:49;;;;;;;7.22;4.55;;;;;;;10.40;72.65;100105.84;4437424;32;20125;-75
2021/05/03 11:02:17;;;;;;;6.55;4.55;;;;;;;10.37;74.36;100096.25;4434063;32;20108;-72
2021/05/03 11:11:07;;;;;;;9.18;3.95;;;;;;;10.80;73.64;100081.53;3985532;32;15027180;-73
2021/05/03 11:13:52;;;;;;;5.30;3.50;;;;;;;10.51;74.13;100070.47;4437410;32;20420;-74
2021/05/03 11:19:22;;;;;;;5.68;3.15;;;;;;;10.60;73.06;100044.44;3983683;32;15026742;-76
2021/05/03 11:21:49;;;;;;;4.62;3.17;;;;;;;10.60;73.06;100044.44;4429372;32;20073;-75
2021/05/03 11:26:59;;;;;;;8.05;3.50;;;;;;;10.65;72.62;100008.88;3983969;32;15025093;-73
2021/05/03 11:29:32;;;;;;;4.65;3.10;;;;;;;10.65;72.62;100007.31;4442168;32;20078;-74
2021/05/03 11:31:58;;;;;;;7.47;3.60;;;;;;;10.41;73.03;100001.31;4441571;32;20033;-73
2021/05/03 11:34:33;;;;;;;5.65;3.10;;;;;;;10.30;73.55;99991.66;4439709;32;20100;-76
2021/05/03 11:37:12;;;;;;;5.62;2.87;;;;;;;10.64;73.52;99983.19;4441415;32;20052;-72
2021/05/03 11:43:10;;;;;;;7.62;3.58;;;;;;;10.59;73.54;99958.47;3932382;32;15024769;-76
2021/05/03 11:45:05;;;;;;;7.93;4.00;;;;;;;10.59;73.54;99958.47;4387952;32;20121;-73
2021/05/03 11:47:35;;;;;;;10.30;3.55;;;;;;;10.57;75.28;99955.34;4389100;32;20070;-73
2021/05/03 11:50:02;;;;;;;4.93;3.65;;;;;;;10.58;73.96;99942.84;4387192;32;20136;-72
2021/05/03 11:52:30;;;;;;;8.30;3.83;;;;;;;10.46;73.99;99933.22;4390319;32;20343;-74
2021/05/03 11:55:13;;;;;;;7.55;3.80;;;;;;;10.48;74.81;99932.75;4388774;32;20096;-72
2021/05/03 11:57:43;;;;;;;8.13;3.97;;;;;;;10.38;74.30;99914.25;4390089;32;20043;-72
2021/05/03 12:00:11;;;;;;;6.15;4.03;;;;;;;10.28;74.90;99918.22;4386612;32;20054;-72
2021/05/03 12:02:37;;;;;;;11.70;4.62;;;;;;;10.25;75.74;99907.91;4376124;32;20459;-73
2021/05/03 12:05:12;;;;;;;18.60;5.60;;;;;;;10.27;76.74;99878.06;4380361;32;20078;-74
2021/05/03 12:07:37;;;;;;;;;;;;;;;10.12;77.52;99882.62;4373680;32;20043;-76
2021/05/03 12:12:56;;;;;;;10.80;5.10;;;;;;;10.45;77.15;99872.59;3956111;32;15724632;-73
2021/05/03 12:18:02;;;;;;;12.88;4.85;;;;;;;10.51;78.45;99845.44;3979004;32;15028360;-74
2021/05/03 12:20:30;;;;;;;10.02;4.35;;;;;;;10.51;78.45;99845.44;4435321;32;20444;-73
2021/05/03 12:23:01;;;;;;;12.20;4.20;;;;;;;10.13;78.33;99833.63;4432265;32;20076;-74
2021/05/03 12:25:39;;;;;;;6.75;3.70;;;;;;;10.11;79.07;99833.28;4434004;32;20085;-73
2021/05/03 12:28:11;;;;;;;10.20;4.60;;;;;;;9.66;80.13;99819.59;4431261;32;20444;-72
2021/05/03 12:30:38;;;;;;;5.18;3.00;;;;;;;10.03;79.85;99820.69;4431571;32;20473;-74
2021/05/03 12:33:20;;;;;;;6.57;3.58;;;;;;;9.86;78.15;99811.69;4432496;32;20069;-74